Bella Vista, AR

10:04 PM CDT on September 21, 2014 (GMT -0500)
Springdale Municipal | Change Station
CLOSE
Current Station
Airport
Location: Springdale,
Elevation: 1352 ft
Nearby Weather Stations

Elev 1352 ft 36.18 °N, 94.12 °W | Updated 1 hour ago

Clear
Clear
66 °F
Feels Like 66 °F
N
6
Wind Variable Wind from North

Today
High -- | Low -- °F
--% Chance of Precip.
Yesterday
High -- | Low -- °F
Precip. -- in
7:04 AM 7:15 PM
Waning Crescent, 4% visible
Pressure 30.18 in
Visibility 10.0 miles
Clouds Few 25000 ft
Dew Point 52 °F
Humidity 60%
Rainfall 0.00 in
Snow Depth Not available.
UV 0 out of 12
Pollen 6.50 out of 12
Air Quality Not available.
Flu Activity Not available.
METAR KASG 220148Z 35005KT 10SM FEW250 19/11 A3018

More Conditions Fewer Conditions

Pressure 30.18 in
Visibility 10.0 miles
Clouds Few 25000 ft
Dew Point 52 °F
Humidity 60%
Rainfall 0.00 in
Snow Depth Not available.
UV 0 out of 12
Pollen 6.50 out of 12
Air Quality Not available.
Flu Activity Not available.
METAR KASG 220148Z 35005KT 10SM FEW250 19/11 A3018

More Conditions Fewer Conditions

10-Day Weather Forecast

Almanac

Astronomy

Sep. 21, 2014 Rise Set
Actual Time 7:04 AM CDT 7:15 PM CDT
Civil Twilight 6:38 AM CDT 7:41 PM CDT
Nautical Twilight 6:08 AM CDT 8:11 PM CDT
Astronomical Twilight 5:37 AM CDT 8:41 PM CDT
Moon 4:41 AM CDT (9/21) 5:49 PM CDT (9/21)
Length of Visible Light 13h 02m
Length of Day
12h 11m
Tomorrow will be 2m 18s shorter.
Waning Crescent, 4% of the Moon is Illuminated
Today
Waning Crescent
Sep 24
New
Oct 1
First Quarter
Oct 8
Full
Oct 15
Last Quarter

Today's Extremes

State Highs State Lows

Community

WunderPhotos

Upload Photos

1,755,371 photos uploaded!

WunderBlogs® & News

Nearby

Snow Depth

Station Depth Elevation
No new snow has been reported.

Earthquake Activity

City Distance Mag. Time & Date
No recent earthquake activity has been reported nearby.
Minimum magnitude displayed is 2.5.

Coastal Water Temperatures

Place Temperature
No Stations Reporting

Nearby Weather Stations